Date,TemperatureHighF,TemperatureAvgF,TemperatureLowF,DewpointHighF,DewpointAvgF,DewpointLowF,HumidityHigh,HumidityAvg,HumidityLow,PressureMaxIn,PressureMinIn,WindSpeedMaxMPH,WindSpeedAvgMPH,GustSpeedMaxMPH,PrecipitationSumIn
2013-2-16,20,20,19,12,11,9,71,69,65,30.16,30.14,9,5,16,0.00
2013-2-17,43,28,17,13,6,0,65,41,22,30.28,30.12,11,3,17,0.89
2013-2-18,50,40,32,25,16,4,53,38,26,30.33,30.09,26,11,40,0.00
2013-2-19,52,38,31,47,28,11,99,70,28,30.14,29.93,30,8,41,0.17
2013-2-20,52,36,27,14,7,-3,54,30,21,30.18,30.02,19,7,30,0.00
2013-2-21,60,48,38,36,17,7,94,32,20,30.12,29.88,23,7,33,0.20
2013-2-22,50,40,33,49,40,33,99,98,95,30.15,29.94,21,11,30,0.36
2013-2-23,52,48,41,51,47,41,99,99,97,29.98,29.80,12,3,17,0.59
2013-2-24,63,49,39,41,29,8,99,51,21,30.00,29.85,10,5,18,0.00
2013-2-25,51,42,34,38,26,12,99,58,22,30.02,29.81,20,9,34,0.01
2013-2-26,40,36,33,40,36,33,99,98,97,29.84,29.53,15,7,39,0.00
2013-2-27,50,38,30,37,32,30,99,80,47,29.88,29.73,14,4,24,0.00
2013-2-28,40,31,27,31,24,20,83,75,59,30.01,29.83,9,4,17,0.01
2013-3-1,33,29,27,27,24,20,95,83,73,30.01,29.94,7,3,11,0.00
2013-3-2,29,26,23,29,24,18,98,91,79,30.04,29.93,6,3,10,0.00
2013-3-3,40,27,19,21,16,11,91,65,42,30.07,29.94,13,4,21,0.01
2013-3-4,54,39,24,27,16,5,58,40,22,30.14,29.96,15,6,23,0.00
2013-3-5,53,43,28,51,40,24,99,88,50,30.03,29.59,27,12,36,0.14
2013-3-6,28,25,22,25,22,17,93,86,79,30.17,29.86,13,5,27,0.00
2013-3-9,50,49,49,30,29,28,46,45,42,30.22,30.18,15,9,19,0.00
2013-3-10,59,52,44,42,32,27,72,47,31,30.22,30.02,21,14,34,0.00
2013-3-11,52,49,45,51,48,42,99,97,73,30.05,29.74,27,14,39,1.07
2013-3-12,57,42,31,44,34,27,99,79,40,30.09,29.81,13,6,23,0.02
2013-3-13,51,38,26,28,22,14,69,52,28,30.26,30.03,11,4,21,0.00
2013-3-14,54,34,21,26,13,7,66,45,21,30.35,30.13,11,4,21,0.00
2013-3-15,66,51,37,42,32,20,84,50,38,30.19,29.89,15,6,24,0.00
2013-3-16,70,58,48,45,41,38,76,55,34,29.97,29.76,18,6,25,0.00
2013-3-17,63,56,49,53,47,41,99,74,55,29.98,29.83,17,6,24,0.00
2013-3-18,54,50,44,52,48,43,99,95,73,29.97,29.75,21,11,32,0.19
2013-3-19,61,48,37,47,29,8,99,53,22,30.08,29.84,11,4,21,0.01
2013-3-20,55,42,33,27,12,2,76,31,21,30.11,29.80,11,3,18,0.00
2013-3-21,46,32,19,26,10,0,79,44,21,29.97,29.81,8,4,18,0.00
2013-3-22,46,36,29,32,21,9,72,54,38,30.04,29.92,8,4,14,0.00
2013-3-23,56,44,39,54,42,30,99,94,69,30.01,29.77,15,6,24,0.21
2013-3-24,48,43,33,48,42,29,99,98,82,29.79,29.47,23,7,32,1.05
2013-3-25,33,27,24,29,21,17,91,78,63,30.06,29.67,15,6,21,0.00
2013-3-26,38,27,24,28,22,19,96,83,56,30.30,30.03,10,4,16,0.01
2013-3-27,52,35,24,24,20,17,84,58,27,30.34,30.14,12,4,17,0.00
2013-3-28,59,43,33,29,21,11,55,43,22,30.31,30.12,9,4,19,0.00
2013-3-29,59,49,42,34,24,9,57,38,23,30.30,30.14,8,3,14,0.00
2013-3-30,64,52,46,51,38,29,99,60,39,30.18,29.97,13,4,34,0.35
2013-3-31,55,52,50,54,51,50,99,98,97,30.00,29.83,25,6,34,0.42
2013-4-1,68,55,46,52,42,31,99,64,36,30.03,29.83,8,3,18,0.01
2013-4-2,60,48,40,35,25,11,69,43,24,30.14,30.00,10,4,28,0.00
2013-4-3,57,48,40,37,30,20,88,52,31,30.18,30.04,15,4,24,0.28
2013-4-4,40,36,33,37,34,32,99,92,76,30.17,29.96,16,7,31,0.29
2013-4-5,66,48,36,45,37,23,99,73,22,30.06,29.85,10,3,18,0.01
2013-4-6,64,55,47,35,32,28,58,42,28,30.15,30.03,17,7,24,0.00
2013-4-7,66,56,47,48,42,34,89,61,44,30.19,30.01,18,10,27,0.00
2013-4-8,70,61,54,54,50,46,90,68,47,30.12,29.98,18,10,28,0.00
2013-4-9,74,65,57,58,54,51,95,69,47,30.15,30.01,16,9,23,0.00
2013-4-10,78,68,60,57,55,53,85,65,45,30.09,29.88,21,10,28,0.00
2013-4-11,68,62,57,64,58,53,99,85,69,29.93,29.61,30,11,47,0.80
2013-4-12,64,55,47,58,48,36,99,80,36,29.93,29.61,25,6,36,0.14
2013-4-13,75,58,46,38,34,27,72,44,21,30.00,29.83,11,5,24,0.00
2013-4-14,60,54,48,50,39,22,99,64,23,30.03,29.87,20,9,35,0.02
2013-4-15,67,57,50,59,54,50,99,92,71,30.12,29.89,16,7,23,0.01
2013-4-16,73,63,56,63,59,56,99,88,64,30.22,30.09,17,8,26,0.00
2013-4-17,79,67,61,62,60,56,98,80,56,30.20,30.01,13,7,19,0.02
2013-4-18,71,64,57,60,57,54,99,79,59,30.07,29.85,21,13,35,0.01
2013-4-19,64,51,37,61,50,34,99,97,77,30.02,29.73,27,11,42,0.57
2013-4-20,64,46,33,34,27,22,92,53,21,30.22,30.00,12,5,22,0.00
2013-4-21,65,52,45,38,32,27,68,46,31,30.30,30.15,15,6,26,0.00
2013-4-22,64,52,41,44,39,35,87,64,43,30.32,30.07,15,7,24,0.00
2013-4-23,66,55,45,48,38,26,69,53,36,30.19,30.00,14,7,22,0.00
2013-4-24,62,56,51,57,53,48,99,88,69,30.10,30.02,23,10,33,0.30
2013-4-25,71,55,43,51,30,13,99,44,16,30.30,30.08,9,3,14,0.00
2013-4-26,67,58,48,41,29,14,53,34,20,30.30,30.20,13,6,21,0.00
2013-4-27,58,51,48,51,48,39,99,88,51,30.33,30.16,21,10,30,0.54
2013-4-28,54,51,47,53,50,47,99,98,92,30.22,29.98,20,9,32,1.62
2013-4-29,69,57,50,58,51,47,99,83,52,30.03,29.86,8,3,16,0.00
2013-4-30,70,62,55,60,54,46,99,78,48,30.09,29.93,11,5,21,0.00
2013-5-1,68,58,52,58,53,51,99,85,60,30.18,30.08,12,6,21,0.00
2013-5-2,58,54,51,57,53,51,99,98,95,30.17,30.10,13,7,24,0.01
2013-5-3,53,52,50,52,51,50,99,99,98,30.11,29.92,23,8,42,0.17
2013-5-4,50,47,43,50,46,43,99,98,93,29.95,29.82,20,9,36,1.50
2013-5-5,56,48,42,56,48,42,99,98,88,29.86,29.73,14,5,35,1.49
2013-5-6,46,43,40,45,42,39,99,98,91,29.91,29.80,13,6,21,0.11
2013-5-7,67,53,45,56,48,44,99,84,48,30.00,29.83,8,3,13,0.05
2013-5-8,72,59,49,57,53,49,99,82,53,30.07,29.93,8,3,13,0.01
2013-5-9,78,66,56,57,54,52,92,68,43,30.08,29.98,6,3,11,0.00
2013-5-10,69,64,59,59,56,53,91,75,64,30.08,29.94,12,5,21,0.00
2013-5-11,69,60,56,64,59,56,99,96,75,30.00,29.83,11,3,17,0.06
2013-5-12,66,55,46,55,40,27,99,63,26,30.11,29.92,8,4,22,0.01
2013-5-13,67,52,41,36,31,27,65,47,25,30.20,30.04,8,3,17,0.00
2013-5-14,74,61,49,53,42,32,66,51,41,30.22,30.02,11,3,17,0.00
2013-5-15,82,69,58,57,54,50,82,60,41,30.13,29.93,8,3,17,0.00
2013-5-16,77,68,61,61,56,53,77,68,54,30.06,29.93,8,3,13,0.00
2013-5-17,73,67,60,65,58,53,99,74,61,30.08,29.98,13,4,20,0.05
2013-5-18,63,61,57,62,60,8,99,98,13,30.09,30.03,14,7,21,0.32
2013-5-19,66,61,59,63,60,54,99,96,64,30.13,29.99,17,4,24,2.22
2013-5-20,80,71,60,70,63,52,99,77,56,30.06,29.96,7,2,11,0.01
2013-5-21,82,72,60,70,66,60,99,84,59,30.06,29.87,14,4,25,0.82
2013-5-22,78,68,60,70,64,59,99,87,53,30.06,29.82,13,5,21,0.31
2013-5-23,77,67,60,65,60,53,99,80,55,29.98,29.86,8,2,19,0.00
2013-5-24,72,59,51,56,48,38,99,71,32,30.25,29.98,4,2,17,0.00
2013-5-25,75,62,51,48,35,17,70,38,19,30.28,30.14,7,2,13,0.00
2013-5-26,79,67,58,53,45,35,60,47,25,30.25,30.09,7,2,10,0.00
2013-5-27,76,69,62,59,53,33,73,57,29,30.20,30.08,10,4,17,0.00
2013-5-28,77,69,61,62,59,54,93,72,48,30.20,30.07,13,7,24,0.00
2013-5-29,75,68,60,66,62,58,95,82,63,30.20,30.10,16,6,27,0.00
2013-5-30,74,66,61,66,63,60,98,88,72,30.25,30.10,14,6,23,0.00
2013-5-31,75,68,62,66,63,61,99,87,71,30.21,30.04,16,7,30,0.00
2013-6-1,74,68,63,69,65,62,99,91,79,30.10,29.97,14,7,23,0.01
2013-6-2,73,67,64,72,66,63,99,98,91,30.00,29.83,14,5,23,0.32
2013-6-3,81,69,64,71,64,60,99,86,58,29.97,29.81,4,2,10,0.01
2013-6-4,82,72,64,66,62,59,91,72,54,30.01,29.90,8,2,12,0.00
2013-6-5,77,67,61,71,66,60,99,95,79,30.03,29.89,10,5,20,0.77
2013-6-6,74,65,61,69,64,61,99,97,82,29.92,29.74,9,4,18,0.01
2013-6-7,80,66,60,70,64,57,99,93,68,29.86,29.65,6,2,9,0.45
2013-6-8,78,67,59,69,63,57,99,88,69,30.07,29.85,8,2,13,0.00
2013-6-9,75,68,65,70,66,63,99,96,80,30.10,29.99,11,6,22,0.15
2013-6-10,72,66,61,71,65,60,99,96,75,30.04,29.91,17,7,35,0.47
2013-6-11,81,71,67,77,69,67,99,93,73,30.03,29.92,8,3,22,0.09
2013-6-12,88,76,69,77,72,67,99,86,66,30.03,29.94,6,2,13,0.00
2013-6-13,81,72,64,74,70,64,99,94,76,29.98,29.72,8,3,21,0.00
2013-6-14,82,70,60,66,60,52,99,72,49,30.01,29.83,8,2,17,0.00
2013-6-15,77,69,63,64,59,53,77,70,59,30.12,30.00,11,4,20,0.00
2013-6-16,80,70,63,69,63,56,99,79,63,30.16,29.99,9,4,16,0.00
2013-6-17,83,68,63,72,66,61,99,93,68,30.10,29.87,9,3,17,0.00
2013-6-18,74,67,63,72,66,62,99,98,92,29.96,29.81,12,3,23,0.00
2013-6-19,79,68,62,71,65,61,99,91,73,30.09,29.90,11,2,16,0.00
2013-6-20,74,68,63,68,65,62,99,91,79,30.19,30.09,7,4,17,0.01
2013-6-21,77,68,63,67,63,61,96,84,66,30.23,30.13,8,3,16,1.30
2013-6-22,81,70,63,65,62,59,92,77,54,30.22,30.08,7,3,14,0.00
2013-6-23,76,70,64,69,66,63,99,89,77,30.19,30.08,8,4,15,0.00
2013-6-24,80,70,65,72,68,62,99,93,71,30.24,30.09,8,3,11,0.00
2013-6-25,85,72,65,72,68,63,99,89,60,30.17,30.00,7,2,11,0.00
2013-6-26,81,73,68,74,70,68,99,91,72,30.08,29.91,9,2,13,0.00
2013-6-27,77,71,67,76,70,66,99,97,89,29.99,29.79,8,3,17,0.14
2013-6-28,85,74,64,76,69,63,99,88,62,29.86,29.61,5,2,15,0.17
2013-6-29,80,71,63,68,63,58,99,79,58,29.74,29.61,5,2,8,0.00
2013-6-30,82,72,65,68,61,57,99,70,51,29.81,29.65,6,2,11,0.02
2013-7-1,73,66,62,69,64,61,99,94,79,29.91,29.78,9,4,19,0.53
2013-7-2,76,68,64,69,66,63,99,93,78,30.07,29.91,10,6,22,0.00
2013-7-3,67,64,61,66,64,60,99,98,97,30.17,30.06,12,4,21,1.29
2013-7-4,67,65,62,67,64,62,99,98,96,30.17,30.07,21,9,28,0.47
2013-7-5,73,66,63,70,65,62,99,97,87,30.21,30.11,17,8,25,0.12
2013-7-6,71,67,64,70,66,64,99,99,98,30.16,30.08,16,8,31,0.57
2013-7-7,70,67,66,70,67,66,99,99,98,30.19,30.10,10,4,17,0.06
2013-7-8,80,72,66,75,69,66,99,92,75,30.19,30.07,7,2,11,1.11
2013-7-9,85,73,67,75,70,67,99,92,67,30.18,30.01,6,1,8,0.13
2013-7-10,85,74,69,77,71,68,99,91,67,30.12,29.92,4,1,9,0.09
2013-7-11,76,70,66,73,68,62,99,92,74,29.98,29.85,5,2,7,0.01
2013-7-12,86,72,66,74,68,60,99,88,56,29.97,29.80,6,2,10,0.00
2013-7-13,72,66,62,69,64,62,99,95,84,30.07,29.95,11,4,16,0.00
2013-7-14,70,67,65,70,67,65,99,99,98,30.21,30.04,12,6,29,0.44
2013-7-15,79,69,65,72,67,65,99,95,75,30.30,30.16,17,5,29,0.05
2013-7-16,81,73,67,71,68,65,99,85,64,30.32,30.20,11,3,18,0.00
2013-7-17,72,72,71,66,66,66,85,82,80,30.30,30.25,2,2,4,0.00
2013-7-28,81,74,66,70,67,63,90,79,65,30.04,29.90,4,2,7,0.00
2013-7-29,81,70,64,66,57,28,91,66,24,30.18,30.03,4,2,8,0.00
2013-7-30,83,74,67,70,54,18,76,52,13,30.18,30.08,7,2,13,0.00
2013-7-31,74,69,65,70,65,60,99,88,69,30.14,29.94,8,2,13,0.32
2013-8-1,83,70,62,76,67,61,99,91,71,30.01,29.85,12,2,17,3.36
2013-8-2,82,73,68,69,63,58,88,73,53,30.04,29.92,5,2,13,0.00
2013-8-3,79,72,68,70,65,58,97,79,68,30.04,29.96,4,1,8,0.00
2013-8-4,84,74,66,71,67,58,99,80,61,30.05,29.92,6,2,14,0.00
2013-8-5,84,73,67,70,63,54,88,72,53,30.04,29.92,6,2,9,0.00
2013-8-6,83,74,67,70,65,54,98,75,48,30.01,29.92,8,1,12,0.04
2013-8-7,71,69,66,70,68,66,99,99,98,30.01,29.99,10,4,16,1.28
2013-8-14,75,69,63,69,66,62,99,91,80,30.04,29.89,8,3,17,0.53
2013-8-15,66,61,58,62,59,57,99,94,79,30.07,30.00,9,5,21,0.01
2013-8-16,65,59,56,61,58,54,99,94,84,30.10,30.02,10,5,19,0.00
2013-8-17,60,58,56,60,58,56,99,98,89,30.13,30.05,8,4,21,0.45
2013-8-18,70,64,60,69,63,60,99,97,79,30.17,30.07,11,3,14,0.30
2013-8-19,74,66,62,71,65,62,99,96,86,30.15,30.02,7,3,15,0.30
2013-8-20,74,68,64,71,67,63,99,97,85,30.17,30.06,9,3,14,0.00
2013-8-21,75,69,66,71,68,66,99,96,85,30.23,30.09,8,4,15,0.00
2013-8-22,84,72,66,74,69,64,99,89,68,30.16,29.99,8,2,15,0.07
2013-8-23,86,74,67,72,68,64,99,83,56,30.07,29.89,5,2,10,0.00
2013-8-24,76,69,64,69,65,61,98,87,73,30.24,30.02,11,4,18,0.00
2013-8-25,76,66,61,65,60,56,96,81,67,30.33,30.20,9,4,21,0.00
2013-8-26,78,68,60,66,61,56,95,81,64,30.32,30.13,5,2,11,0.00
2013-8-27,83,71,63,69,64,60,93,80,54,30.18,29.97,4,2,8,0.00
2013-8-28,89,74,67,73,68,63,94,80,51,30.07,29.92,5,2,11,0.00
2013-8-29,88,76,68,74,70,66,95,82,59,30.00,29.85,4,2,12,0.00
2013-8-30,78,72,69,74,70,66,99,93,77,30.02,29.92,8,3,14,0.09
2013-8-31,82,73,68,77,71,66,99,93,76,29.97,29.84,9,3,13,0.13
2013-9-1,76,70,66,74,68,66,99,96,80,29.97,29.84,7,2,11,0.65
2013-9-2,76,69,65,73,68,65,99,97,86,29.99,29.84,5,2,11,0.14
2013-9-3,86,74,67,74,68,63,99,85,62,29.99,29.80,4,2,10,0.01
2013-9-4,83,73,67,70,66,61,96,79,58,30.10,29.97,5,2,8,0.00
2013-9-5,82,72,67,70,64,60,96,77,58,30.11,30.01,5,2,10,0.00
2013-9-6,79,71,66,67,63,58,90,76,64,30.14,30.03,9,2,15,0.00
2013-9-7,80,70,64,68,64,60,89,81,65,30.11,29.96,6,2,10,0.00
2013-9-8,86,74,66,71,66,62,93,77,55,30.04,29.87,4,2,11,0.00
2013-9-9,79,73,68,69,66,63,85,79,68,30.13,30.01,9,3,15,0.00
2013-9-10,80,72,66,70,66,62,97,82,67,30.23,30.12,9,4,14,0.00
2013-9-11,83,73,67,71,65,62,87,76,59,30.24,30.07,5,2,9,0.00
2013-9-12,84,74,67,72,66,62,92,78,60,30.13,29.87,4,1,9,0.00
2013-9-13,81,69,58,67,60,49,99,76,51,29.94,29.78,7,2,13,0.00
2013-9-14,74,64,57,58,53,46,84,70,56,30.08,29.90,11,3,17,0.00
2013-9-15,74,65,59,66,61,56,99,86,70,30.17,30.06,11,5,25,0.00
2013-9-16,82,72,66,69,64,55,97,76,54,30.14,30.00,6,2,11,0.00
2013-9-17,72,65,58,61,58,55,94,79,62,30.22,30.10,8,5,21,0.00
2013-9-18,70,61,57,61,56,53,92,85,74,30.23,30.11,8,4,17,0.00
2013-9-19,82,68,59,66,60,56,93,77,55,30.18,30.00,7,2,11,0.00
2013-9-20,77,69,64,64,61,58,86,76,62,30.09,29.89,12,5,21,0.00
2013-9-21,68,63,57,64,62,56,99,96,85,29.93,29.69,17,7,27,0.83
2013-9-22,78,64,55,62,56,49,99,76,54,29.87,29.72,7,2,14,0.00
2013-9-23,72,63,58,60,57,54,96,81,63,30.03,29.88,11,4,17,0.00
2013-9-24,64,60,58,61,58,55,99,95,83,30.03,29.88,10,5,18,0.11
2013-9-25,60,59,57,60,58,57,99,99,99,29.88,29.81,7,4,15,0.59
2013-9-26,78,63,55,68,60,55,99,92,60,30.01,29.83,4,1,14,0.00
2013-9-27,77,64,57,62,56,50,99,76,51,30.14,29.98,8,3,14,0.00
2013-9-28,71,60,54,58,56,53,97,85,62,30.20,30.07,8,3,18,0.00
2013-9-29,56,55,55,54,53,52,95,93,92,30.17,30.15,8,4,16,0.00
2013-9-30,68,60,55,57,54,53,94,80,64,30.10,29.96,9,4,15,0.00
2013-10-1,80,64,58,64,59,54,99,84,55,30.16,29.98,8,2,13,0.00
2013-10-2,82,68,60,65,60,57,96,77,52,30.17,30.00,7,2,10,0.00
2013-10-3,76,68,64,63,59,57,81,74,60,30.14,30.03,9,4,12,0.00
2013-10-4,81,70,64,66,61,57,82,73,56,30.16,30.03,7,2,10,0.00
2013-10-5,78,70,64,65,62,59,86,74,58,30.16,30.00,10,4,17,0.00
2013-10-6,74,66,60,66,62,59,99,89,71,30.04,29.86,12,7,23,0.46
2013-10-7,75,63,55,65,58,48,99,83,54,29.97,29.80,13,3,21,0.51
2013-10-8,72,62,55,58,54,48,91,76,58,30.15,29.95,8,4,17,0.00
2013-10-9,74,59,52,57,50,41,95,75,48,30.18,30.06,9,3,21,0.00
2013-10-10,77,63,54,60,55,48,96,76,53,30.16,29.96,5,2,15,0.00
2013-10-11,80,66,58,61,54,48,83,68,44,30.05,29.89,5,2,13,0.00
2013-10-12,80,66,59,62,55,51,81,69,49,30.11,29.95,4,2,9,0.00
2013-10-13,81,67,60,62,57,52,91,70,47,30.20,30.04,4,2,11,0.00
2013-10-14,72,63,58,62,59,56,99,88,68,30.21,30.06,6,3,14,0.00
2013-10-15,61,56,54,58,55,53,99,96,85,30.17,30.06,10,3,26,0.00
2013-10-16,62,58,54,58,56,53,99,93,85,30.08,29.96,9,3,15,0.00
2013-10-17,62,59,54,61,58,54,99,98,90,29.98,29.88,11,4,17,0.28
2013-10-18,70,57,50,57,50,39,99,78,51,30.01,29.87,5,2,8,0.00
2013-10-19,63,53,48,55,49,44,99,87,74,30.00,29.87,5,2,14,0.01
2013-10-20,68,55,44,50,34,11,98,50,16,30.07,29.93,5,2,8,0.00
2013-10-21,64,56,50,54,47,29,97,74,41,30.11,29.99,9,4,15,0.00
2013-10-22,70,57,50,53,48,42,94,74,46,30.05,29.79,6,2,11,0.00
2013-10-23,56,47,37,49,40,30,99,81,50,30.10,29.84,8,3,18,0.00
2013-10-24,61,46,35,42,36,28,92,71,46,30.21,30.04,4,2,11,0.00
2013-10-25,59,41,27,38,26,17,91,59,25,30.41,30.21,8,3,17,0.00
2013-10-26,55,43,34,36,30,25,75,61,44,30.36,30.16,8,4,15,0.00
2013-10-27,60,51,44,52,44,32,97,78,61,30.19,30.09,6,2,15,0.00
2013-10-28,58,53,50,53,50,47,99,92,79,30.30,30.14,6,2,11,0.22
2013-10-29,67,58,51,58,53,48,99,85,67,30.34,30.21,8,2,14,0.00
2013-10-30,75,62,56,58,55,53,94,77,54,30.28,30.10,11,5,19,0.00
2013-10-31,63,59,56,60,56,50,99,90,77,30.16,29.83,17,11,32,0.02
2013-11-1,71,60,50,64,54,46,99,83,44,29.83,29.62,21,5,31,0.07
2013-11-2,63,52,42,48,42,36,84,69,44,30.06,29.79,8,2,18,0.00
2013-11-3,63,48,37,42,38,32,99,70,32,30.29,30.05,11,3,25,0.00
2013-11-4,58,47,40,40,36,33,76,66,48,30.42,30.29,15,8,29,0.01
2013-11-5,65,48,38,43,34,29,92,60,31,30.46,30.28,13,6,21,0.01
2013-11-6,66,56,45,57,53,42,99,90,72,30.34,30.10,15,8,26,0.00
2013-11-7,62,52,36,57,45,28,99,81,47,30.22,30.00,13,4,21,0.13
2013-11-8,66,46,34,28,22,16,74,42,19,30.30,30.12,11,3,21,0.00
2013-11-9,52,46,42,34,28,14,64,51,23,30.32,30.21,9,5,19,0.00
2013-11-10,73,56,45,40,34,25,65,47,21,30.26,30.07,10,3,14,0.00
2013-11-11,61,53,46,32,27,14,57,37,23,30.28,30.12,9,4,20,0.00
2013-11-12,60,43,23,42,28,10,75,56,46,30.52,30.08,11,4,20,0.00
2013-11-13,54,37,22,18,8,-6,68,32,21,30.57,30.37,11,2,15,0.00
2013-11-14,54,44,35,18,10,2,35,26,21,30.49,30.26,11,6,17,0.00
2013-11-15,50,47,43,50,41,11,99,84,26,30.31,30.13,17,9,32,0.18
2013-11-16,53,52,49,52,51,49,99,98,98,30.21,30.12,17,8,27,0.00
2013-11-17,64,57,52,63,56,52,99,98,97,30.16,29.89,22,13,36,0.09
2013-11-18,69,56,42,63,42,30,99,62,29,30.04,29.85,19,5,34,0.05
2013-11-19,60,45,35,35,28,17,67,52,28,30.16,30.00,16,5,25,0.00
2013-11-20,56,42,34,34,29,24,73,61,42,30.33,30.15,18,9,29,0.00
2013-11-21,54,48,40,54,46,33,99,94,73,30.38,30.26,21,11,31,0.01
2013-11-22,57,54,50,57,53,50,99,98,97,30.34,30.16,14,6,23,0.06
2013-11-23,53,45,30,53,40,19,99,84,57,30.29,30.11,16,6,27,0.02
2013-11-24,53,32,19,20,11,3,69,45,21,30.47,30.24,14,4,23,0.00
2013-11-25,29,29,29,7,7,7,39,39,39,30.46,30.46,13,13,21,0.00
2013-12-2,46,45,44,45,45,44,98,97,97,29.89,29.82,10,4,12,0.02
2013-12-3,53,49,46,52,48,45,99,99,97,29.89,29.82,15,7,21,0.06
2013-12-4,60,56,52,59,56,52,99,98,97,30.00,29.88,16,9,24,0.04
2013-12-5,64,61,58,63,61,58,99,98,97,30.05,29.94,21,12,27,0.25
2013-12-6,63,62,54,62,61,53,99,98,97,30.02,29.91,20,14,26,0.67
2013-12-7,62,52,44,55,48,43,99,89,59,30.26,30.02,17,7,27,0.02
2013-12-8,52,46,38,51,45,38,99,99,97,30.24,30.07,27,15,43,0.20
2013-12-9,51,48,46,51,48,45,99,99,97,30.13,30.04,24,18,36,0.17
2013-12-14,49,47,45,49,47,44,99,99,97,29.88,29.80,11,5,19,0.01
2013-12-15,45,32,26,44,32,26,99,98,97,30.19,29.82,7,2,97,0.01
2013-12-16,51,44,39,33,30,27,70,59,46,30.23,30.09,6,3,15,0.00
2013-12-17,55,43,36,37,32,26,79,65,47,30.23,30.01,12,6,22,0.00
2013-12-18,52,46,38,23,15,6,46,28,21,30.30,30.19,8,3,14,0.00
2013-12-19,58,51,46,29,18,8,48,28,20,30.28,30.14,17,9,27,0.00
2013-12-20,54,50,46,53,42,28,98,75,46,30.20,30.09,18,10,28,0.00
2013-12-21,61,58,53,61,57,52,99,98,97,30.09,29.89,25,11,37,0.12
2013-12-22,62,55,50,61,55,50,99,98,97,30.06,29.83,12,4,14,2.85
2013-12-23,50,46,42,50,45,42,99,98,97,30.14,30.01,8,4,12,0.04
2013-12-25,42,36,31,29,24,14,83,61,40,30.40,30.28,11,5,16,0.00
2013-12-26,57,40,32,31,26,10,84,60,29,30.36,30.16,12,4,17,0.00
2013-12-27,53,42,33,28,23,8,64,48,25,30.43,30.29,8,3,16,0.00
2013-12-28,48,42,33,36,23,8,99,53,22,30.38,29.96,22,7,44,0.51
2013-12-29,46,39,36,46,39,35,99,98,97,30.05,29.80,27,7,39,0.12
2013-12-30,41,36,32,40,36,32,99,98,96,30.21,30.03,11,4,15,0.00
2013-12-31,46,35,27,33,22,6,99,66,23,30.36,30.20,11,4,20,0.00
2014-1-1,46,40,35,38,25,11,89,58,28,30.35,30.10,17,8,23,0.00
2014-1-2,42,34,14,41,33,12,99,97,82,30.15,29.73,15,6,23,0.12